| time (UTC) | temp F | wind direction | speed MPH | gust MPH | rain 1hr in | rain 24hr in | rain mn in | humidity % | barometer mb |
| 20260901122202 | 74 | 271 | 12.0 | 21.0 | 0.00 | 0.00 | 0.00 | 47 | 1021.6 |
| 20260901121702 | 74 | 308 | 11.0 | 21.0 | 0.00 | 0.00 | 0.00 | 46 | 1021.6 |
| 20260901121202 | 75 | 327 | 10.0 | 16.0 | 0.00 | 0.00 | 0.00 | 47 | 1021.5 |
| 20260901120702 | 74 | 331 | 9.0 | 16.0 | 0.00 | 0.00 | 0.00 | 46 | 1021.6 |
| 20260901120203 | 74 | 315 | 7.0 | 16.0 | 0.00 | 0.00 | 0.00 | 45 | 1021.6 |
| 20260901115703 | 75 | 285 | 8.0 | 16.0 | 0.00 | 0.00 | 0.00 | 45 | 1021.6 |
| 20260901115202 | 76 | 320 | 8.0 | 15.0 | 0.00 | 0.00 | 0.00 | 44 | 1021.5 |
| 20260901114703 | 76 | 298 | 8.0 | 15.0 | 0.00 | 0.00 | 0.00 | 46 | 1021.5 |
| 20260901114203 | 76 | 310 | 7.0 | 16.0 | 0.00 | 0.00 | 0.00 | 44 | 1021.5 |
| 20260901113711 | 75 | 238 | 7.0 | 17.0 | 0.00 | 0.00 | 0.00 | 44 | 1021.6 |
| 20260901113159 | 74 | 273 | 9.0 | 17.0 | 0.00 | 0.00 | 0.00 | 47 | 1021.7 |
| 20260901112652 | 74 | 279 | 9.0 | 18.0 | 0.00 | 0.00 | 0.00 | 46 | 1021.7 |
| 20260901112146 | 74 | 336 | 9.0 | 18.0 | 0.00 | 0.00 | 0.00 | 45 | 1021.8 |
| 20260901111637 | 74 | 266 | 9.0 | 16.0 | 0.00 | 0.00 | 0.00 | 47 | 1021.8 |
| 20260901111131 | 74 | 285 | 8.0 | 16.0 | 0.00 | 0.00 | 0.00 | 45 | 1021.7 |
| 20260901110631 | 74 | 300 | 8.0 | 15.0 | 0.00 | 0.00 | 0.00 | 46 | 1021.6 |
| 20260901110130 | 74 | 306 | 7.0 | 14.0 | 0.00 | 0.00 | 0.00 | 46 | 1021.7 |
| 20260901105630 | 73 | 333 | 8.0 | 17.0 | 0.00 | 0.00 | 0.00 | 48 | 1021.7 |
| 20260901105130 | 73 | 276 | 10.0 | 20.0 | 0.00 | 0.00 | 0.00 | 48 | 1021.6 |
| 20260901104630 | 74 | 317 | 9.0 | 20.0 | 0.00 | 0.00 | 0.00 | 47 | 1021.6 |
| 20260901104130 | 73 | 319 | 8.0 | 15.0 | 0.00 | 0.00 | 0.00 | 49 | 1021.7 |
| 20260901103630 | 73 | 323 | 7.0 | 15.0 | 0.00 | 0.00 | 0.00 | 53 | 1021.6 |
| 20260901103131 | 72 | 320 | 7.0 | 15.0 | 0.00 | 0.00 | 0.00 | 52 | 1021.7 |
| 20260901102632 | 72 | 329 | 8.0 | 15.0 | 0.00 | 0.00 | 0.00 | 50 | 1021.7 |
| 20260901102131 | 72 | 303 | 8.0 | 14.0 | 0.00 | 0.00 | 0.00 | 51 | 1021.6 |
| 20260901101631 | 72 | 343 | 7.0 | 13.0 | 0.00 | 0.00 | 0.00 | 51 | 1021.7 |
| 20260901101130 | 71 | 290 | 8.0 | 18.0 | 0.00 | 0.00 | 0.00 | 54 | 1021.7 |
| 20260901100631 | 72 | 287 | 8.0 | 18.0 | 0.00 | 0.00 | 0.00 | 53 | 1021.8 |
| 20260901100130 | 72 | 298 | 7.0 | 15.0 | 0.00 | 0.00 | 0.00 | 51 | 1021.8 |
| 20260901095625 | 72 | 314 | 8.0 | 16.0 | 0.00 | 0.00 | 0.00 | 52 | 1021.7 |
| 20260901095124 | 73 | 329 | 8.0 | 16.0 | 0.00 | 0.00 | 0.00 | 49 | 1021.7 |
| 20260901094617 | 73 | 270 | 6.0 | 16.0 | 0.00 | 0.00 | 0.00 | 49 | 1021.6 |
| 20260901094109 | 73 | 313 | 7.0 | 16.0 | 0.00 | 0.00 | 0.00 | 50 | 1021.6 |
| 20260901093609 | 72 | 282 | 10.0 | 20.0 | 0.00 | 0.00 | 0.00 | 50 | 1021.6 |
| 20260901093102 | 72 | 298 | 10.0 | 20.0 | 0.00 | 0.00 | 0.00 | 51 | 1021.7 |
| 20260901092601 | 73 | 322 | 9.0 | 16.0 | 0.00 | 0.00 | 0.00 | 50 | 1021.7 |
| 20260901092103 | 73 | 329 | 7.0 | 16.0 | 0.00 | 0.00 | 0.00 | 51 | 1021.7 |
| 20260901091603 | 73 | 327 | 7.0 | 16.0 | 0.00 | 0.00 | 0.00 | 52 | 1021.7 |
| 20260901091102 | 72 | 300 | 8.0 | 17.0 | 0.00 | 0.00 | 0.00 | 51 | 1021.7 |
| 20260901090559 | 71 | 297 | 8.0 | 18.0 | 0.00 | 0.00 | 0.00 | 52 | 1021.7 |
| 20260901090108 | 71 | 307 | 8.0 | 18.0 | 0.00 | 0.00 | 0.00 | 54 | 1021.7 |
| 20260901085558 | 71 | 286 | 8.0 | 14.0 | 0.00 | 0.00 | 0.00 | 54 | 1021.7 |
| 20260901085059 | 71 | 296 | 8.0 | 15.0 | 0.00 | 0.00 | 0.00 | 54 | 1021.8 |
| 20260901084559 | 71 | 272 | 8.0 | 15.0 | 0.00 | 0.00 | 0.00 | 54 | 1022.0 |
| 20260901084100 | 70 | 284 | 8.0 | 16.0 | 0.00 | 0.00 | 0.00 | 56 | 1021.7 |
| 20260901083558 | 70 | 319 | 8.0 | 16.0 | 0.00 | 0.00 | 0.00 | 56 | 1021.6 |
| 20260901083058 | 70 | 291 | 7.0 | 16.0 | 0.00 | 0.00 | 0.00 | 58 | 1021.7 |
| 20260901082600 | 69 | 301 | 8.0 | 16.0 | 0.00 | 0.00 | 0.00 | 57 | 1021.7 |
| 20260901082054 | 69 | 286 | 9.0 | 16.0 | 0.00 | 0.00 | 0.00 | 58 | 1021.7 |
| 20260901081544 | 69 | 252 | 9.0 | 18.0 | 0.00 | 0.00 | 0.00 | 59 | 1021.6 |
| 20260901081039 | 68 | 281 | 9.0 | 18.0 | 0.00 | 0.00 | 0.00 | 59 | 1021.6 |
| 20260901080538 | 68 | 301 | 9.0 | 20.0 | 0.00 | 0.00 | 0.00 | 60 | 1021.6 |
| 20260901080046 | 67 | 255 | 9.0 | 20.0 | 0.00 | 0.00 | 0.00 | 62 | 1021.6 |
| 20260901075538 | 67 | 244 | 8.0 | 17.0 | 0.00 | 0.00 | 0.00 | 64 | 1021.6 |
| 20260901075038 | 66 | 276 | 8.0 | 16.0 | 0.00 | 0.00 | 0.00 | 64 | 1021.6 |
| 20260901074539 | 66 | 298 | 8.0 | 17.0 | 0.00 | 0.00 | 0.00 | 65 | 1021.5 |
| 20260901074446 | 61 | 336 | 4.0 | 8.0 | 0.00 | 0.00 | 0.00 | 78 | 1021.2 |
| 20260901074440 | 60 | 300 | 3.0 | 8.0 | 0.00 | 0.00 | 0.00 | 79 | 1021.2 |
| 20260901074430 | 60 | 261 | 3.0 | 7.0 | 0.00 | 0.00 | 0.00 | 79 | 1021.2 |
| 20260901074426 | 60 | 258 | 4.0 | 9.0 | 0.00 | 0.00 | 0.00 | 79 | 1021.2 |
| 20260901074416 | 59 | 242 | 3.0 | 9.0 | 0.00 | 0.00 | 0.00 | 81 | 1021.2 |
| 20260901074409 | 58 | 275 | 2.0 | 6.0 | 0.00 | 0.00 | 0.00 | 81 | 1021.2 |
| 20260901074356 | 58 | 261 | 2.0 | 6.0 | 0.00 | 0.00 | 0.00 | 82 | 1021.1 |
| 20260901074352 | 57 | 241 | 2.0 | 6.0 | 0.00 | 0.00 | 0.00 | 84 | 1021.1 |
| 20260901074342 | 56 | 252 | 2.0 | 3.0 | 0.00 | 0.00 | 0.00 | 85 | 1021.1 |
| 20260901074336 | 56 | 251 | 2.0 | 4.0 | 0.00 | 0.00 | 0.00 | 85 | 1021.1 |
| 20260901074327 | 55 | 251 | 1.0 | 4.0 | 0.00 | 0.01 | 0.00 | 86 | 1021.0 |
| 20260901074323 | 55 | 273 | 2.0 | 5.0 | 0.00 | 0.01 | 0.00 | 87 | 1021.1 |
| 20260901074256 | 54 | 283 | 3.0 | 5.0 | 0.00 | 0.01 | 0.00 | 87 | 1021.1 |
| 20260901074251 | 54 | 259 | 3.0 | 5.0 | 0.00 | 0.01 | 0.00 | 87 | 1021.1 |
| 20260901074242 | 54 | 252 | 2.0 | 5.0 | 0.00 | 0.01 | 0.00 | 86 | 1021.0 |
| 20260901074238 | 54 | 247 | 1.0 | 4.0 | 0.00 | 0.01 | 0.00 | 85 | 1021.0 |
| 20260901074225 | 54 | 274 | 1.0 | 3.0 | 0.00 | 0.01 | 0.00 | 84 | 1021.0 |
| 20260901074211 | 54 | 298 | 0.0 | 2.0 | 0.00 | 0.01 | 0.00 | 84 | 1020.9 |
| 20260901074155 | 54 | 298 | 0.0 | 1.0 | 0.00 | 0.01 | 0.00 | 83 | 1020.9 |
| 20260901074150 | 55 | 298 | 0.0 | 1.0 | 0.00 | 0.01 | 0.00 | 83 | 1020.9 |
| 20260901074141 | 55 | 298 | 1.0 | 2.0 | 0.00 | 0.01 | 0.00 | 83 | 1020.8 |
| 20260901074136 | 55 | 298 | 1.0 | 4.0 | 0.00 | 0.01 | 0.00 | 82 | 1020.8 |
| 20260901074126 | 55 | 298 | 1.0 | 4.0 | 0.00 | 0.01 | 0.00 | 83 | 1020.8 |
| 20260901074120 | 55 | 263 | 0.0 | 3.0 | 0.00 | 0.01 | 0.00 | 84 | 1020.7 |
| 20260901074111 | 55 | 263 | 0.0 | 4.0 | 0.00 | 0.01 | 0.00 | 84 | 1020.7 |
| 20260901074102 | 55 | 273 | 2.0 | 5.0 | 0.00 | 0.01 | 0.00 | 84 | 1020.7 |
| 20260901074044 | 54 | 250 | 3.0 | 5.0 | 0.00 | 0.01 | 0.00 | 85 | 1020.7 |
| 20260901074040 | 66 | 234 | 7.0 | 17.0 | 0.00 | 0.00 | 0.00 | 65 | 1021.5 |
| 20260901074034 | 54 | 245 | 3.0 | 5.0 | 0.00 | 0.01 | 0.00 | 85 | 1020.8 |
| 20260901074022 | 54 | 217 | 3.0 | 5.0 | 0.00 | 0.01 | 0.00 | 86 | 1020.7 |
| 20260901074017 | 53 | 238 | 2.0 | 4.0 | 0.00 | 0.01 | 0.00 | 86 | 1020.7 |
| 20260901074009 | 53 | 236 | 2.0 | 5.0 | 0.00 | 0.01 | 0.00 | 87 | 1020.7 |
| 20260901073959 | 53 | 249 | 3.0 | 5.0 | 0.00 | 0.01 | 0.00 | 87 | 1020.7 |
| 20260901073950 | 53 | 258 | 3.0 | 5.0 | 0.00 | 0.01 | 0.00 | 86 | 1020.7 |
| 20260901073945 | 53 | 246 | 2.0 | 4.0 | 0.00 | 0.01 | 0.00 | 86 | 1020.7 |
| 20260901073937 | 53 | 241 | 1.0 | 4.0 | 0.00 | 0.01 | 0.00 | 85 | 1020.7 |
| 20260901073924 | 65 | 288 | 7.0 | 14.0 | 0.00 | 0.00 | 0.00 | 71 | 1021.3 |
| 20260901073920 | 64 | 254 | 7.0 | 14.0 | 0.00 | 0.00 | 0.00 | 70 | 1021.3 |
| 20260901073915 | 64 | 231 | 6.0 | 14.0 | 0.00 | 0.00 | 0.00 | 72 | 1021.3 |
| 20260901073904 | 64 | 279 | 7.0 | 14.0 | 0.00 | 0.00 | 0.00 | 72 | 1021.3 |
| 20260901073856 | 64 | 284 | 6.0 | 13.0 | 0.00 | 0.00 | 0.00 | 72 | 1021.3 |
| 20260901073848 | 63 | 263 | 5.0 | 12.0 | 0.00 | 0.00 | 0.00 | 73 | 1021.2 |
| 20260901073843 | 63 | 265 | 6.0 | 13.0 | 0.00 | 0.00 | 0.00 | 74 | 1021.2 |
| 20260901073834 | 65 | 283 | 7.0 | 17.0 | 0.00 | 0.00 | 0.00 | 69 | 1021.3 |
| 20260901073826 | 63 | 290 | 7.0 | 13.0 | 0.00 | 0.00 | 0.00 | 73 | 1021.2 |
| 20260901073820 | 63 | 240 | 8.0 | 15.0 | 0.00 | 0.00 | 0.00 | 74 | 1021.2 |
| 20260901073811 | 62 | 321 | 7.0 | 15.0 | 0.00 | 0.00 | 0.00 | 75 | 1021.2 |
| 20260901073807 | 66 | 269 | 6.0 | 16.0 | 0.00 | 0.00 | 0.00 | 68 | 1021.3 |
| 20260901073754 | 62 | 290 | 6.0 | 13.0 | 0.00 | 0.00 | 0.00 | 76 | 1021.2 |
| 20260901073740 | 62 | 300 | 6.0 | 12.0 | 0.00 | 0.00 | 0.00 | 77 | 1021.1 |
| 20260901073736 | 62 | 265 | 5.0 | 12.0 | 0.00 | 0.00 | 0.00 | 76 | 1021.2 |
| 20260901073728 | 65 | 236 | 7.0 | 17.0 | 0.00 | 0.00 | 0.00 | 69 | 1021.3 |
| 20260901031948 | 54 | 252 | 0.0 | 1.0 | 0.00 | 0.01 | 0.00 | 84 | 1020.7 |
| 20260901031931 | 53 | 252 | 0.0 | 2.0 | 0.00 | 0.01 | 0.00 | 85 | 1020.7 |
| 20260901031529 | 54 | 252 | 0.0 | 0.0 | 0.00 | 0.01 | 0.00 | 83 | 1020.7 |
| 20260901030431 | 54 | 252 | 0.0 | 2.0 | 0.00 | 0.01 | 0.00 | 82 | 1020.7 |
| 20260901025929 | 54 | 252 | 0.0 | 2.0 | 0.00 | 0.01 | 0.00 | 82 | 1020.7 |
| 20260901025426 | 55 | 252 | 0.0 | 2.0 | 0.00 | 0.01 | 0.00 | 82 | 1020.7 |
| 20260901024927 | 55 | 252 | 1.0 | 3.0 | 0.00 | 0.01 | 0.00 | 82 | 1020.6 |
| 20260901024428 | 55 | 252 | 1.0 | 3.0 | 0.00 | 0.01 | 0.00 | 82 | 1020.6 |
| 20260901023926 | 56 | 257 | 0.0 | 0.0 | 0.00 | 0.01 | 0.00 | 81 | 1020.5 |
| 20260901023427 | 56 | 257 | 0.0 | 0.0 | 0.00 | 0.01 | 0.00 | 81 | 1020.5 |
| 20260901022926 | 56 | 257 | 0.0 | 2.0 | 0.00 | 0.01 | 0.00 | 80 | 1020.5 |
| 20260901022426 | 56 | 257 | 1.0 | 3.0 | 0.00 | 0.01 | 0.00 | 80 | 1020.6 |
| 20260901021927 | 56 | 257 | 2.0 | 3.0 | 0.00 | 0.01 | 0.00 | 80 | 1020.5 |
| 20260901021426 | 56 | 254 | 1.0 | 3.0 | 0.00 | 0.01 | 0.00 | 80 | 1020.4 |
| 20260901020925 | 56 | 241 | 1.0 | 3.0 | 0.00 | 0.01 | 0.00 | 80 | 1020.3 |
| 20260901020428 | 56 | 236 | 2.0 | 4.0 | 0.00 | 0.01 | 0.00 | 80 | 1020.4 |
| 20260901015923 | 56 | 234 | 2.0 | 4.0 | 0.00 | 0.01 | 0.00 | 81 | 1020.3 |
| 20260901015412 | 56 | 242 | 2.0 | 4.0 | 0.00 | 0.01 | 0.00 | 82 | 1020.3 |
| 20260901014911 | 56 | 263 | 2.0 | 4.0 | 0.00 | 0.01 | 0.00 | 82 | 1020.3 |
| 20260901014410 | 56 | 253 | 2.0 | 4.0 | 0.00 | 0.01 | 0.00 | 83 | 1020.4 |
| 20260901013912 | 56 | 243 | 2.0 | 4.0 | 0.00 | 0.01 | 0.00 | 83 | 1020.3 |
| 20260901013411 | 56 | 261 | 2.0 | 4.0 | 0.00 | 0.01 | 0.00 | 84 | 1020.4 |
| 20260901012912 | 56 | 252 | 2.0 | 3.0 | 0.00 | 0.01 | 0.00 | 85 | 1020.4 |
| 20260901012410 | 56 | 251 | 2.0 | 4.0 | 0.00 | 0.01 | 0.00 | 85 | 1020.4 |
| 20260901011913 | 55 | 251 | 2.0 | 4.0 | 0.00 | 0.01 | 0.00 | 86 | 1020.3 |
| 20260901011409 | 55 | 251 | 2.0 | 4.0 | 0.00 | 0.01 | 0.00 | 86 | 1020.3 |
| 20260901010908 | 55 | 238 | 1.0 | 3.0 | 0.00 | 0.01 | 0.00 | 86 | 1020.3 |
| 20260901010405 | 55 | 257 | 0.0 | 3.0 | 0.00 | 0.01 | 0.00 | 85 | 1020.2 |
| 20260901005905 | 55 | 260 | 0.0 | 0.0 | 0.00 | 0.01 | 0.00 | 86 | 1020.2 |
| 20260901005402 | 55 | 260 | 0.0 | 0.0 | 0.00 | 0.01 | 0.00 | 86 | 1020.2 |
| 20260901004903 | 55 | 260 | 0.0 | 1.0 | 0.00 | 0.01 | 0.00 | 86 | 1020.2 |
| 20260901004402 | 55 | 260 | 0.0 | 2.0 | 0.00 | 0.01 | 0.00 | 86 | 1020.2 |
| 20260901003904 | 55 | 260 | 0.0 | 2.0 | 0.00 | 0.01 | 0.00 | 86 | 1019.9 |
| 20260901003401 | 56 | 259 | 0.0 | 2.0 | 0.00 | 0.01 | 0.00 | 87 | 1019.9 |
| 20260901002900 | 56 | 259 | 1.0 | 3.0 | 0.00 | 0.01 | 0.00 | 87 | 1019.8 |
| 20260901002359 | 55 | 259 | 1.0 | 3.0 | 0.00 | 0.01 | 0.00 | 87 | 1019.9 |
| 20260901001855 | 56 | 251 | 0.0 | 3.0 | 0.00 | 0.01 | 0.00 | 87 | 1020.0 |
| 20260901001356 | 56 | 251 | 0.0 | 0.0 | 0.00 | 0.01 | 0.00 | 87 | 1019.9 |
| 20260901000856 | 55 | 251 | 0.0 | 0.0 | 0.00 | 0.01 | 0.00 | 87 | 1019.8 |
| 20260901000358 | 56 | 251 | 0.0 | 0.0 | 0.00 | 0.01 | 0.00 | 87 | 1019.7 |
| 20260831235858 | 56 | 251 | 0.0 | 0.0 | 0.00 | 0.01 | 0.00 | 87 | 1019.7 |
| 20260831235357 | 56 | 251 | 0.0 | 0.0 | 0.00 | 0.01 | 0.00 | 88 | 1019.7 |
| 20260831234851 | 56 | 251 | 0.0 | 2.0 | 0.00 | 0.01 | 0.00 | 88 | 1019.6 |
| 20260831234350 | 56 | 251 | 0.0 | 2.0 | 0.00 | 0.01 | 0.00 | 87 | 1019.7 |
| 20260831233850 | 56 | 251 | 0.0 | 2.0 | 0.00 | 0.01 | 0.00 | 86 | 1019.7 |
| 20260831233351 | 56 | 239 | 0.0 | 0.0 | 0.00 | 0.01 | 0.00 | 85 | 1019.7 |
| 20260831232849 | 56 | 239 | 0.0 | 0.0 | 0.00 | 0.01 | 0.00 | 84 | 1019.7 |
| 20260831232350 | 56 | 239 | 0.0 | 0.0 | 0.00 | 0.01 | 0.00 | 83 | 1019.7 |
| 20260831231848 | 56 | 239 | 0.0 | 0.0 | 0.00 | 0.01 | 0.00 | 83 | 1019.7 |
| 20260831231346 | 56 | 239 | 0.0 | 0.0 | 0.00 | 0.01 | 0.00 | 82 | 1019.6 |
| 20260831230844 | 56 | 239 | 0.0 | 0.0 | 0.00 | 0.01 | 0.00 | 82 | 1019.6 |
| 20260831230345 | 56 | 239 | 0.0 | 0.0 | 0.00 | 0.01 | 0.00 | 82 | 1019.5 |
| 20260831225842 | 57 | 239 | 0.0 | 0.0 | 0.00 | 0.01 | 0.00 | 81 | 1019.6 |
| 20260831225338 | 57 | 239 | 0.0 | 0.0 | 0.00 | 0.01 | 0.00 | 81 | 1019.7 |
| 20260831224838 | 57 | 239 | 0.0 | 0.0 | 0.00 | 0.01 | 0.00 | 80 | 1019.8 |
| 20260831224336 | 57 | 239 | 0.0 | 0.0 | 0.00 | 0.01 | 0.00 | 80 | 1019.7 |
| 20260831223836 | 58 | 239 | 0.0 | 0.0 | 0.00 | 0.01 | 0.00 | 81 | 1019.8 |
| 20260831223336 | 58 | 239 | 0.0 | 0.0 | 0.00 | 0.01 | 0.00 | 81 | 1019.7 |
| 20260831222834 | 58 | 239 | 0.0 | 0.0 | 0.00 | 0.01 | 0.00 | 81 | 1019.8 |
| 20260831222332 | 58 | 239 | 0.0 | 0.0 | 0.00 | 0.01 | 0.00 | 81 | 1019.8 |
| 20260831221833 | 58 | 239 | 0.0 | 0.0 | 0.00 | 0.01 | 0.00 | 80 | 1019.8 |
| 20260831221326 | 59 | 239 | 0.0 | 0.0 | 0.00 | 0.01 | 0.00 | 80 | 1019.8 |
| 20260831220825 | 59 | 239 | 0.0 | 0.0 | 0.00 | 0.01 | 0.00 | 81 | 1019.8 |
| 20260831220314 | 59 | 239 | 0.0 | 0.0 | 0.00 | 0.01 | 0.00 | 78 | 1019.9 |
| 20260831215809 | 59 | 239 | 0.0 | 0.0 | 0.00 | 0.01 | 0.01 | 78 | 1019.7 |
| 20260831215309 | 60 | 239 | 0.0 | 0.0 | 0.00 | 0.01 | 0.01 | 79 | 1019.7 |
| 20260831214807 | 60 | 239 | 0.0 | 0.0 | 0.00 | 0.01 | 0.01 | 80 | 1019.7 |
| 20260831214307 | 60 | 239 | 0.0 | 0.0 | 0.00 | 0.01 | 0.01 | 81 | 1019.6 |
| 20260831213806 | 60 | 239 | 0.0 | 0.0 | 0.00 | 0.01 | 0.01 | 80 | 1019.5 |
| 20260831213305 | 60 | 239 | 0.0 | 0.0 | 0.00 | 0.01 | 0.01 | 78 | 1019.5 |
| 20260831212804 | 60 | 239 | 0.0 | 0.0 | 0.00 | 0.01 | 0.01 | 76 | 1019.4 |
| 20260831212306 | 60 | 239 | 0.0 | 0.0 | 0.00 | 0.01 | 0.01 | 76 | 1019.4 |
| 20260831211802 | 60 | 239 | 0.0 | 0.0 | 0.00 | 0.01 | 0.01 | 76 | 1019.3 |
| 20260831211303 | 61 | 239 | 0.0 | 0.0 | 0.00 | 0.01 | 0.01 | 76 | 1019.3 |
| 20260831210803 | 61 | 239 | 0.0 | 2.0 | 0.00 | 0.01 | 0.01 | 77 | 1019.4 |
| 20260831210305 | 61 | 238 | 1.0 | 3.0 | 0.00 | 0.01 | 0.01 | 76 | 1019.4 |
| 20260831205803 | 61 | 238 | 1.0 | 3.0 | 0.00 | 0.01 | 0.01 | 77 | 1019.2 |
| 20260831205305 | 61 | 282 | 0.0 | 0.0 | 0.00 | 0.01 | 0.01 | 75 | 1019.3 |
| 20260831204802 | 61 | 286 | 0.0 | 0.0 | 0.00 | 0.01 | 0.01 | 76 | 1019.3 |
| 20260831204303 | 61 | 286 | 0.0 | 0.0 | 0.00 | 0.01 | 0.01 | 73 | 1019.2 |
| 20260831203803 | 61 | 286 | 0.0 | 0.0 | 0.00 | 0.01 | 0.01 | 73 | 1019.2 |
| 20260831203301 | 61 | 287 | 0.0 | 0.0 | 0.00 | 0.01 | 0.01 | 73 | 1019.1 |
| 20260831202757 | 61 | 287 | 0.0 | 0.0 | 0.00 | 0.01 | 0.01 | 73 | 1019.0 |
| 20260831202251 | 62 | 287 | 0.0 | 0.0 | 0.00 | 0.01 | 0.01 | 71 | 1018.8 |
| 20260831201749 | 62 | 287 | 0.0 | 0.0 | 0.00 | 0.01 | 0.01 | 71 | 1018.7 |
| 20260831201249 | 62 | 287 | 0.0 | 0.0 | 0.00 | 0.01 | 0.01 | 71 | 1018.7 |
| 20260831200744 | 62 | 287 | 0.0 | 0.0 | 0.00 | 0.01 | 0.01 | 70 | 1018.6 |
| 20260831200245 | 62 | 287 | 0.0 | 0.0 | 0.00 | 0.01 | 0.01 | 69 | 1018.5 |
| 20260831195745 | 62 | 287 | 0.0 | 0.0 | 0.00 | 0.01 | 0.01 | 70 | 1018.4 |
| 20260831195243 | 62 | 287 | 0.0 | 0.0 | 0.00 | 0.01 | 0.01 | 69 | 1018.2 |
| 20260831194746 | 62 | 287 | 0.0 | 0.0 | 0.00 | 0.01 | 0.01 | 69 | 1018.2 |
| 20260831194242 | 63 | 287 | 0.0 | 0.0 | 0.00 | 0.01 | 0.01 | 67 | 1018.2 |
| 20260831193741 | 63 | 287 | 0.0 | 0.0 | 0.00 | 0.01 | 0.01 | 67 | 1018.1 |
| 20260831193238 | 63 | 287 | 0.0 | 0.0 | 0.00 | 0.01 | 0.01 | 66 | 1018.1 |
| 20260831192738 | 63 | 287 | 0.0 | 0.0 | 0.00 | 0.01 | 0.01 | 66 | 1018.1 |
| 20260831192238 | 63 | 287 | 0.0 | 0.0 | 0.00 | 0.01 | 0.01 | 66 | 1018.1 |
| 20260831191738 | 64 | 287 | 0.0 | 0.0 | 0.00 | 0.01 | 0.01 | 67 | 1017.9 |
| 20260831191239 | 64 | 287 | 0.0 | 0.0 | 0.00 | 0.01 | 0.01 | 67 | 1017.7 |
| 20260831190735 | 64 | 287 | 0.0 | 0.0 | 0.00 | 0.01 | 0.01 | 65 | 1017.7 |
| 20260831190233 | 64 | 287 | 0.0 | 0.0 | 0.00 | 0.01 | 0.01 | 65 | 1017.6 |
| 20260831185731 | 65 | 287 | 0.0 | 0.0 | 0.00 | 0.01 | 0.01 | 64 | 1017.6 |
| 20260831185231 | 65 | 287 | 0.0 | 0.0 | 0.00 | 0.01 | 0.01 | 65 | 1017.5 |
| 20260831184727 | 66 | 287 | 0.0 | 0.0 | 0.00 | 0.01 | 0.01 | 67 | 1017.5 |
| 20260831184217 | 66 | 287 | 0.0 | 0.0 | 0.00 | 0.01 | 0.01 | 66 | 1017.4 |
| 20260831183713 | 66 | 287 | 0.0 | 0.0 | 0.00 | 0.01 | 0.01 | 65 | 1017.4 |
| 20260831183207 | 67 | 287 | 0.0 | 0.0 | 0.00 | 0.01 | 0.01 | 65 | 1017.3 |
| 20260831182706 | 67 | 287 | 0.0 | 0.0 | 0.00 | 0.01 | 0.01 | 64 | 1017.3 |
| 20260831182203 | 68 | 287 | 0.0 | 0.0 | 0.00 | 0.01 | 0.01 | 63 | 1017.2 |
| 20260831181702 | 68 | 287 | 0.0 | 2.0 | 0.00 | 0.01 | 0.01 | 63 | 1017.1 |
| 20260831181202 | 69 | 287 | 1.0 | 2.0 | 0.00 | 0.01 | 0.01 | 61 | 1017.1 |
| 20260831180703 | 69 | 287 | 1.0 | 3.0 | 0.00 | 0.01 | 0.01 | 56 | 1017.1 |
| 20260831180200 | 70 | 287 | 1.0 | 3.0 | 0.00 | 0.01 | 0.01 | 52 | 1017.1 |
| 20260831175701 | 70 | 287 | 1.0 | 3.0 | 0.00 | 0.01 | 0.01 | 52 | 1017.0 |
| 20260831175159 | 71 | 287 | 1.0 | 3.0 | 0.00 | 0.01 | 0.01 | 51 | 1017.0 |
| 20260831174657 | 71 | 287 | 1.0 | 3.0 | 0.00 | 0.01 | 0.01 | 50 | 1016.9 |
| 20260831174155 | 72 | 284 | 1.0 | 4.0 | 0.00 | 0.01 | 0.01 | 50 | 1016.8 |
| 20260831173654 | 72 | 285 | 1.0 | 4.0 | 0.00 | 0.01 | 0.01 | 50 | 1016.8 |
| 20260831173154 | 72 | 271 | 2.0 | 6.0 | 0.00 | 0.01 | 0.01 | 49 | 1016.8 |
| 20260831172655 | 73 | 273 | 2.0 | 6.0 | 0.00 | 0.01 | 0.01 | 48 | 1016.9 |
| 20260831172153 | 73 | 249 | 2.0 | 5.0 | 0.00 | 0.01 | 0.01 | 47 | 1016.8 |
| 20260831171652 | 73 | 257 | 2.0 | 4.0 | 0.00 | 0.01 | 0.01 | 46 | 1016.8 |
| 20260831171152 | 73 | 280 | 4.0 | 9.0 | 0.00 | 0.01 | 0.01 | 46 | 1016.8 |
| 20260831170652 | 74 | 287 | 5.0 | 12.0 | 0.00 | 0.01 | 0.01 | 45 | 1016.8 |
| 20260831170151 | 74 | 288 | 5.0 | 12.0 | 0.00 | 0.01 | 0.01 | 45 | 1016.7 |
| 20260831165646 | 74 | 295 | 5.0 | 10.0 | 0.00 | 0.01 | 0.01 | 45 | 1016.7 |
| 20260831165140 | 74 | 296 | 5.0 | 10.0 | 0.00 | 0.01 | 0.01 | 44 | 1016.6 |
| 20260831164639 | 75 | 316 | 5.0 | 10.0 | 0.00 | 0.01 | 0.01 | 44 | 1016.6 |
| 20260831164133 | 75 | 342 | 4.0 | 9.0 | 0.00 | 0.01 | 0.01 | 44 | 1016.6 |
| 20260831163630 | 75 | 273 | 4.0 | 9.0 | 0.00 | 0.01 | 0.01 | 43 | 1016.5 |
| 20260831163130 | 76 | 261 | 4.0 | 8.0 | 0.00 | 0.01 | 0.01 | 42 | 1016.5 |
| 20260831162630 | 76 | 277 | 6.0 | 12.0 | 0.00 | 0.01 | 0.01 | 42 | 1016.5 |
| 20260831162130 | 76 | 280 | 6.0 | 12.0 | 0.00 | 0.01 | 0.01 | 42 | 1016.6 |
| 20260831161630 | 77 | 292 | 6.0 | 12.0 | 0.00 | 0.01 | 0.01 | 41 | 1016.6 |
| 20260831161130 | 77 | 285 | 7.0 | 18.0 | 0.00 | 0.01 | 0.01 | 41 | 1016.6 |
| 20260831160631 | 77 | 294 | 6.0 | 18.0 | 0.00 | 0.01 | 0.01 | 40 | 1016.7 |
| 20260831160132 | 78 | 260 | 5.0 | 14.0 | 0.00 | 0.01 | 0.01 | 41 | 1016.6 |
| 20260831155631 | 78 | 277 | 5.0 | 14.0 | 0.00 | 0.01 | 0.01 | 42 | 1016.6 |
| 20260831155131 | 78 | 288 | 5.0 | 13.0 | 0.00 | 0.01 | 0.01 | 41 | 1016.6 |
| 20260831154630 | 78 | 319 | 6.0 | 15.0 | 0.00 | 0.01 | 0.01 | 41 | 1016.7 |
| 20260831154130 | 78 | 331 | 7.0 | 15.0 | 0.00 | 0.01 | 0.01 | 40 | 1016.8 |
| 20260831153631 | 78 | 265 | 6.0 | 12.0 | 0.00 | 0.01 | 0.01 | 40 | 1016.8 |
| 20260831153133 | 78 | 274 | 6.0 | 14.0 | 0.00 | 0.01 | 0.01 | 40 | 1016.8 |
| 20260831152629 | 79 | 278 | 7.0 | 14.0 | 0.00 | 0.01 | 0.01 | 40 | 1016.8 |
| 20260831152130 | 79 | 314 | 7.0 | 13.0 | 0.00 | 0.01 | 0.01 | 40 | 1016.9 |
| 20260831151701 | 79 | 303 | 8.0 | 18.0 | 0.00 | 0.01 | 0.01 | 40 | 1016.9 |
| 20260831151130 | 79 | 278 | 8.0 | 18.0 | 0.00 | 0.01 | 0.01 | 40 | 1016.9 |
| 20260831150654 | 79 | 274 | 8.0 | 17.0 | 0.00 | 0.01 | 0.01 | 40 | 1016.9 |
| 20260831150130 | 79 | 294 | 8.0 | 17.0 | 0.00 | 0.01 | 0.01 | 39 | 1017.0 |
| 20260831145630 | 79 | 251 | 7.0 | 17.0 | 0.00 | 0.01 | 0.01 | 39 | 1016.9 |
| 20260831145130 | 79 | 340 | 7.0 | 16.0 | 0.00 | 0.01 | 0.01 | 39 | 1017.0 |
| 20260831144632 | 79 | 221 | 7.0 | 15.0 | 0.00 | 0.01 | 0.01 | 39 | 1016.9 |
| 20260831144132 | 79 | 287 | 7.0 | 15.0 | 0.00 | 0.01 | 0.01 | 39 | 1017.0 |
| 20260831143632 | 79 | 274 | 7.0 | 15.0 | 0.00 | 0.01 | 0.01 | 40 | 1017.0 |
| 20260831143129 | 79 | 259 | 8.0 | 15.0 | 0.00 | 0.01 | 0.01 | 39 | 1017.1 |
| 20260831142630 | 79 | 265 | 8.0 | 16.0 | 0.00 | 0.01 | 0.01 | 41 | 1017.1 |
| 20260831142129 | 80 | 275 | 8.0 | 18.0 | 0.00 | 0.01 | 0.01 | 42 | 1017.1 |
| 20260831141629 | 80 | 229 | 8.0 | 18.0 | 0.00 | 0.01 | 0.01 | 39 | 1017.0 |
| 20260831141130 | 80 | 239 | 9.0 | 17.0 | 0.00 | 0.01 | 0.01 | 38 | 1016.9 |
| 20260831140630 | 80 | 275 | 8.0 | 17.0 | 0.00 | 0.01 | 0.01 | 39 | 1016.9 |
| 20260831140121 | 80 | 248 | 8.0 | 17.0 | 0.00 | 0.01 | 0.01 | 40 | 1016.9 |
| 20260831135613 | 80 | 295 | 7.0 | 14.0 | 0.00 | 0.01 | 0.01 | 40 | 1016.9 |
| 20260831135112 | 80 | 277 | 6.0 | 15.0 | 0.00 | 0.01 | 0.01 | 40 | 1016.9 |
| 20260831134611 | 80 | 213 | 7.0 | 15.0 | 0.00 | 0.01 | 0.01 | 42 | 1016.9 |
| 20260831134111 | 79 | 264 | 8.0 | 15.0 | 0.00 | 0.01 | 0.01 | 43 | 1017.0 |
| 20260831133611 | 79 | 244 | 8.0 | 18.0 | 0.00 | 0.01 | 0.01 | 45 | 1017.0 |
| 20260831133110 | 79 | 277 | 8.0 | 21.0 | 0.00 | 0.01 | 0.01 | 43 | 1017.1 |
| 20260831132613 | 78 | 288 | 8.0 | 21.0 | 0.00 | 0.01 | 0.01 | 45 | 1017.0 |
| 20260831132110 | 78 | 247 | 8.0 | 16.0 | 0.00 | 0.01 | 0.01 | 47 | 1017.1 |
| 20260831131612 | 77 | 281 | 7.0 | 16.0 | 0.00 | 0.01 | 0.01 | 47 | 1017.1 |
| 20260831131110 | 78 | 277 | 7.0 | 15.0 | 0.00 | 0.01 | 0.01 | 47 | 1017.1 |
| 20260831130610 | 78 | 305 | 9.0 | 18.0 | 0.00 | 0.01 | 0.01 | 45 | 1017.2 |
| 20260831130109 | 80 | 297 | 8.0 | 18.0 | 0.00 | 0.01 | 0.01 | 45 | 1017.2 |
| 20260831125609 | 79 | 246 | 7.0 | 15.0 | 0.00 | 0.01 | 0.01 | 45 | 1017.2 |
| 20260831125107 | 78 | 258 | 6.0 | 15.0 | 0.00 | 0.01 | 0.01 | 47 | 1017.3 |
| 20260831124609 | 77 | 327 | 6.0 | 13.0 | 0.00 | 0.01 | 0.01 | 50 | 1017.3 |
| 20260831124102 | 76 | 285 | 8.0 | 15.0 | 0.00 | 0.01 | 0.01 | 52 | 1017.3 |
| 20260831123606 | 76 | 315 | 7.0 | 15.0 | 0.00 | 0.01 | 0.01 | 51 | 1017.2 |
| 20260831123103 | 76 | 296 | 6.0 | 14.0 | 0.00 | 0.01 | 0.01 | 53 | 1017.3 |